sensor_id;sensor_type;location;lat;lon;timestamp;P1;durP1;ratioP1;P2;durP2;ratioP2
67227;SDS011;54139;42.616;23.748;2023-07-24T00:00:10;12.00;;;7.78;;
67227;SDS011;54139;42.616;23.748;2023-07-24T00:02:36;6.78;;;5.95;;
67227;SDS011;54139;42.616;23.748;2023-07-24T00:05:01;7.53;;;5.82;;
67227;SDS011;54139;42.616;23.748;2023-07-24T00:07:27;6.18;;;5.57;;
67227;SDS011;54139;42.616;23.748;2023-07-24T00:09:52;7.72;;;5.68;;
67227;SDS011;54139;42.616;23.748;2023-07-24T00:12:18;7.15;;;5.50;;
67227;SDS011;54139;42.616;23.748;2023-07-24T00:14:43;6.50;;;5.65;;
67227;SDS011;54139;42.616;23.748;2023-07-24T00:17:09;6.53;;;5.75;;
67227;SDS011;54139;42.616;23.748;2023-07-24T00:19:34;6.97;;;5.70;;
67227;SDS011;54139;42.616;23.748;2023-07-24T00:22:00;9.80;;;6.53;;
67227;SDS011;54139;42.616;23.748;2023-07-24T00:24:26;6.93;;;6.28;;
67227;SDS011;54139;42.616;23.748;2023-07-24T00:26:52;8.35;;;5.60;;
67227;SDS011;54139;42.616;23.748;2023-07-24T00:29:17;7.00;;;5.35;;
67227;SDS011;54139;42.616;23.748;2023-07-24T00:31:43;6.32;;;5.63;;
67227;SDS011;54139;42.616;23.748;2023-07-24T00:34:08;7.60;;;5.88;;
67227;SDS011;54139;42.616;23.748;2023-07-24T00:36:34;7.80;;;6.43;;
67227;SDS011;54139;42.616;23.748;2023-07-24T00:38:59;6.82;;;5.82;;
67227;SDS011;54139;42.616;23.748;2023-07-24T00:41:24;7.70;;;6.47;;
67227;SDS011;54139;42.616;23.748;2023-07-24T00:43:50;8.23;;;5.70;;
67227;SDS011;54139;42.616;23.748;2023-07-24T00:46:15;6.85;;;5.53;;
67227;SDS011;54139;42.616;23.748;2023-07-24T00:48:41;7.57;;;5.78;;
67227;SDS011;54139;42.616;23.748;2023-07-24T00:51:06;9.32;;;6.72;;
67227;SDS011;54139;42.616;23.748;2023-07-24T00:53:32;9.70;;;7.13;;
67227;SDS011;54139;42.616;23.748;2023-07-24T00:55:57;7.78;;;6.43;;
67227;SDS011;54139;42.616;23.748;2023-07-24T00:58:23;8.80;;;6.43;;
67227;SDS011;54139;42.616;23.748;2023-07-24T01:00:48;9.25;;;5.80;;
67227;SDS011;54139;42.616;23.748;2023-07-24T01:03:15;7.15;;;6.32;;
67227;SDS011;54139;42.616;23.748;2023-07-24T01:05:40;9.30;;;6.72;;
67227;SDS011;54139;42.616;23.748;2023-07-24T01:08:06;11.50;;;5.88;;
67227;SDS011;54139;42.616;23.748;2023-07-24T01:10:32;10.38;;;6.18;;
67227;SDS011;54139;42.616;23.748;2023-07-24T01:13:08;9.40;;;6.07;;
67227;SDS011;54139;42.616;23.748;2023-07-24T01:15:44;6.45;;;5.50;;
67227;SDS011;54139;42.616;23.748;2023-07-24T01:18:13;8.20;;;6.85;;
67227;SDS011;54139;42.616;23.748;2023-07-24T01:20:47;8.77;;;5.97;;
67227;SDS011;54139;42.616;23.748;2023-07-24T01:23:21;8.70;;;6.15;;
67227;SDS011;54139;42.616;23.748;2023-07-24T01:25:56;11.45;;;7.78;;
67227;SDS011;54139;42.616;23.748;2023-07-24T01:28:25;11.57;;;7.25;;
67227;SDS011;54139;42.616;23.748;2023-07-24T01:30:51;9.75;;;6.60;;
67227;SDS011;54139;42.616;23.748;2023-07-24T01:33:17;12.10;;;7.00;;
67227;SDS011;54139;42.616;23.748;2023-07-24T01:35:43;11.00;;;7.45;;
67227;SDS011;54139;42.616;23.748;2023-07-24T01:38:09;11.43;;;8.05;;
67227;SDS011;54139;42.616;23.748;2023-07-24T01:40:37;12.73;;;7.70;;
67227;SDS011;54139;42.616;23.748;2023-07-24T01:43:06;12.15;;;8.20;;
67227;SDS011;54139;42.616;23.748;2023-07-24T01:45:32;12.82;;;7.47;;
67227;SDS011;54139;42.616;23.748;2023-07-24T01:47:57;14.15;;;7.68;;
67227;SDS011;54139;42.616;23.748;2023-07-24T01:50:23;17.92;;;8.68;;
67227;SDS011;54139;42.616;23.748;2023-07-24T01:52:49;11.88;;;8.23;;
67227;SDS011;54139;42.616;23.748;2023-07-24T01:55:14;12.95;;;7.72;;
67227;SDS011;54139;42.616;23.748;2023-07-24T01:57:40;11.93;;;7.57;;
67227;SDS011;54139;42.616;23.748;2023-07-24T02:00:05;17.00;;;8.10;;
67227;SDS011;54139;42.616;23.748;2023-07-24T02:02:31;12.68;;;8.02;;
67227;SDS011;54139;42.616;23.748;2023-07-24T02:04:57;18.05;;;8.40;;
67227;SDS011;54139;42.616;23.748;2023-07-24T02:07:22;10.10;;;7.05;;
67227;SDS011;54139;42.616;23.748;2023-07-24T02:09:47;12.05;;;8.02;;
67227;SDS011;54139;42.616;23.748;2023-07-24T02:12:13;16.88;;;8.05;;
67227;SDS011;54139;42.616;23.748;2023-07-24T02:14:38;12.98;;;7.30;;
67227;SDS011;54139;42.616;23.748;2023-07-24T02:17:04;14.70;;;9.30;;
67227;SDS011;54139;42.616;23.748;2023-07-24T02:19:30;14.05;;;7.60;;
67227;SDS011;54139;42.616;23.748;2023-07-24T02:21:55;13.15;;;7.90;;
67227;SDS011;54139;42.616;23.748;2023-07-24T02:24:21;11.23;;;7.70;;
67227;SDS011;54139;42.616;23.748;2023-07-24T02:26:46;13.90;;;8.80;;
67227;SDS011;54139;42.616;23.748;2023-07-24T02:29:11;14.55;;;8.52;;
67227;SDS011;54139;42.616;23.748;2023-07-24T02:31:37;16.83;;;8.63;;
67227;SDS011;54139;42.616;23.748;2023-07-24T02:34:02;12.02;;;7.78;;
67227;SDS011;54139;42.616;23.748;2023-07-24T02:36:28;13.68;;;7.95;;
67227;SDS011;54139;42.616;23.748;2023-07-24T02:38:53;14.05;;;8.82;;
67227;SDS011;54139;42.616;23.748;2023-07-24T02:41:18;13.10;;;7.53;;
67227;SDS011;54139;42.616;23.748;2023-07-24T02:43:44;16.63;;;10.63;;
67227;SDS011;54139;42.616;23.748;2023-07-24T02:46:09;15.60;;;8.57;;
67227;SDS011;54139;42.616;23.748;2023-07-24T02:48:35;18.85;;;8.85;;
67227;SDS011;54139;42.616;23.748;2023-07-24T02:51:00;14.48;;;8.90;;
67227;SDS011;54139;42.616;23.748;2023-07-24T02:53:25;16.52;;;8.57;;
67227;SDS011;54139;42.616;23.748;2023-07-24T02:55:51;11.93;;;7.82;;
67227;SDS011;54139;42.616;23.748;2023-07-24T02:58:16;11.60;;;8.65;;
67227;SDS011;54139;42.616;23.748;2023-07-24T03:00:42;11.50;;;8.15;;
67227;SDS011;54139;42.616;23.748;2023-07-24T03:03:07;13.25;;;8.45;;
67227;SDS011;54139;42.616;23.748;2023-07-24T03:05:36;16.85;;;8.50;;
67227;SDS011;54139;42.616;23.748;2023-07-24T03:08:01;16.70;;;9.23;;
67227;SDS011;54139;42.616;23.748;2023-07-24T03:10:27;14.82;;;9.02;;
67227;SDS011;54139;42.616;23.748;2023-07-24T03:12:52;11.18;;;7.40;;
67227;SDS011;54139;42.616;23.748;2023-07-24T03:15:18;13.85;;;7.60;;
67227;SDS011;54139;42.616;23.748;2023-07-24T03:17:44;13.43;;;8.27;;
67227;SDS011;54139;42.616;23.748;2023-07-24T03:20:13;20.80;;;12.00;;
67227;SDS011;54139;42.616;23.748;2023-07-24T03:22:40;15.02;;;8.70;;
67227;SDS011;54139;42.616;23.748;2023-07-24T03:25:07;17.45;;;9.00;;
67227;SDS011;54139;42.616;23.748;2023-07-24T03:27:33;16.92;;;8.02;;
67227;SDS011;54139;42.616;23.748;2023-07-24T03:29:58;18.42;;;10.05;;
67227;SDS011;54139;42.616;23.748;2023-07-24T03:32:24;17.80;;;9.77;;
67227;SDS011;54139;42.616;23.748;2023-07-24T03:34:49;13.02;;;7.95;;
67227;SDS011;54139;42.616;23.748;2023-07-24T03:37:15;13.88;;;7.85;;
67227;SDS011;54139;42.616;23.748;2023-07-24T03:39:40;18.63;;;8.85;;
67227;SDS011;54139;42.616;23.748;2023-07-24T03:42:05;16.05;;;10.23;;
67227;SDS011;54139;42.616;23.748;2023-07-24T03:44:31;19.90;;;9.68;;
67227;SDS011;54139;42.616;23.748;2023-07-24T03:46:56;14.77;;;8.85;;
67227;SDS011;54139;42.616;23.748;2023-07-24T03:49:22;20.75;;;8.85;;
67227;SDS011;54139;42.616;23.748;2023-07-24T03:51:47;15.30;;;8.10;;
67227;SDS011;54139;42.616;23.748;2023-07-24T03:54:13;14.15;;;8.45;;
67227;SDS011;54139;42.616;23.748;2023-07-24T03:56:38;12.07;;;8.00;;
67227;SDS011;54139;42.616;23.748;2023-07-24T03:59:05;13.98;;;8.18;;
67227;SDS011;54139;42.616;23.748;2023-07-24T04:01:31;13.32;;;7.90;;
67227;SDS011;54139;42.616;23.748;2023-07-24T04:03:57;10.80;;;7.60;;
67227;SDS011;54139;42.616;23.748;2023-07-24T04:06:23;10.40;;;7.53;;
67227;SDS011;54139;42.616;23.748;2023-07-24T04:08:49;11.95;;;8.10;;
67227;SDS011;54139;42.616;23.748;2023-07-24T04:11:14;11.43;;;7.90;;
67227;SDS011;54139;42.616;23.748;2023-07-24T04:13:40;9.82;;;7.57;;
67227;SDS011;54139;42.616;23.748;2023-07-24T04:16:05;9.68;;;6.70;;
67227;SDS011;54139;42.616;23.748;2023-07-24T04:18:31;10.23;;;6.93;;
67227;SDS011;54139;42.616;23.748;2023-07-24T04:20:56;8.30;;;6.93;;
67227;SDS011;54139;42.616;23.748;2023-07-24T04:23:22;9.52;;;7.22;;
67227;SDS011;54139;42.616;23.748;2023-07-24T04:25:49;10.55;;;7.80;;
67227;SDS011;54139;42.616;23.748;2023-07-24T04:28:15;12.23;;;7.75;;
67227;SDS011;54139;42.616;23.748;2023-07-24T04:30:40;11.45;;;7.68;;
67227;SDS011;54139;42.616;23.748;2023-07-24T04:33:06;13.63;;;7.90;;
67227;SDS011;54139;42.616;23.748;2023-07-24T04:35:31;11.93;;;8.45;;
67227;SDS011;54139;42.616;23.748;2023-07-24T04:37:57;10.75;;;8.40;;
67227;SDS011;54139;42.616;23.748;2023-07-24T04:40:23;12.10;;;8.65;;
67227;SDS011;54139;42.616;23.748;2023-07-24T04:42:49;11.00;;;7.60;;
67227;SDS011;54139;42.616;23.748;2023-07-24T04:45:14;16.80;;;7.30;;
67227;SDS011;54139;42.616;23.748;2023-07-24T04:47:40;9.07;;;6.63;;
67227;SDS011;54139;42.616;23.748;2023-07-24T04:50:05;8.75;;;7.40;;
67227;SDS011;54139;42.616;23.748;2023-07-24T04:52:31;9.23;;;6.97;;
67227;SDS011;54139;42.616;23.748;2023-07-24T04:54:56;9.35;;;7.65;;
67227;SDS011;54139;42.616;23.748;2023-07-24T04:57:22;10.45;;;8.55;;
67227;SDS011;54139;42.616;23.748;2023-07-24T04:59:47;10.55;;;9.38;;
67227;SDS011;54139;42.616;23.748;2023-07-24T05:02:13;12.00;;;10.23;;
67227;SDS011;54139;42.616;23.748;2023-07-24T05:04:38;11.98;;;9.70;;
67227;SDS011;54139;42.616;23.748;2023-07-24T05:07:04;12.32;;;9.52;;
67227;SDS011;54139;42.616;23.748;2023-07-24T05:09:29;12.70;;;10.40;;
67227;SDS011;54139;42.616;23.748;2023-07-24T05:11:55;14.20;;;9.18;;
67227;SDS011;54139;42.616;23.748;2023-07-24T05:14:20;11.27;;;8.77;;
67227;SDS011;54139;42.616;23.748;2023-07-24T05:16:46;8.50;;;7.20;;
67227;SDS011;54139;42.616;23.748;2023-07-24T05:19:11;8.05;;;6.15;;
67227;SDS011;54139;42.616;23.748;2023-07-24T05:21:36;7.20;;;6.00;;
67227;SDS011;54139;42.616;23.748;2023-07-24T05:24:02;5.88;;;5.38;;
67227;SDS011;54139;42.616;23.748;2023-07-24T05:26:27;6.57;;;5.57;;
67227;SDS011;54139;42.616;23.748;2023-07-24T05:28:53;8.57;;;6.78;;
67227;SDS011;54139;42.616;23.748;2023-07-24T05:31:18;9.15;;;6.50;;
67227;SDS011;54139;42.616;23.748;2023-07-24T05:33:44;6.55;;;5.90;;
67227;SDS011;54139;42.616;23.748;2023-07-24T05:36:09;6.15;;;5.55;;
67227;SDS011;54139;42.616;23.748;2023-07-24T05:38:35;5.60;;;5.10;;
67227;SDS011;54139;42.616;23.748;2023-07-24T05:41:01;6.05;;;5.45;;
67227;SDS011;54139;42.616;23.748;2023-07-24T05:43:28;7.30;;;5.97;;
67227;SDS011;54139;42.616;23.748;2023-07-24T05:45:54;6.07;;;5.47;;
67227;SDS011;54139;42.616;23.748;2023-07-24T05:48:20;6.10;;;5.55;;
67227;SDS011;54139;42.616;23.748;2023-07-24T05:50:46;5.50;;;5.00;;
67227;SDS011;54139;42.616;23.748;2023-07-24T05:53:12;5.70;;;5.20;;
67227;SDS011;54139;42.616;23.748;2023-07-24T05:55:38;6.47;;;5.70;;
67227;SDS011;54139;42.616;23.748;2023-07-24T05:58:03;6.27;;;5.20;;
67227;SDS011;54139;42.616;23.748;2023-07-24T06:00:29;5.97;;;5.47;;
67227;SDS011;54139;42.616;23.748;2023-07-24T06:02:54;8.70;;;7.97;;
67227;SDS011;54139;42.616;23.748;2023-07-24T06:05:20;7.53;;;6.83;;
67227;SDS011;54139;42.616;23.748;2023-07-24T06:07:46;17.27;;;15.60;;
67227;SDS011;54139;42.616;23.748;2023-07-24T06:10:11;8.23;;;7.03;;
67227;SDS011;54139;42.616;23.748;2023-07-24T06:12:37;9.43;;;6.60;;
67227;SDS011;54139;42.616;23.748;2023-07-24T06:15:03;7.40;;;6.70;;
67227;SDS011;54139;42.616;23.748;2023-07-24T06:17:29;7.63;;;6.73;;
67227;SDS011;54139;42.616;23.748;2023-07-24T06:19:54;7.40;;;6.67;;
67227;SDS011;54139;42.616;23.748;2023-07-24T06:22:20;9.13;;;7.10;;
67227;SDS011;54139;42.616;23.748;2023-07-24T06:24:45;7.03;;;6.32;;
67227;SDS011;54139;42.616;23.748;2023-07-24T06:27:11;8.93;;;6.60;;
67227;SDS011;54139;42.616;23.748;2023-07-24T06:29:36;9.75;;;6.75;;
67227;SDS011;54139;42.616;23.748;2023-07-24T06:32:01;7.13;;;6.15;;
67227;SDS011;54139;42.616;23.748;2023-07-24T06:34:28;6.55;;;5.95;;
67227;SDS011;54139;42.616;23.748;2023-07-24T06:36:53;6.15;;;5.55;;
67227;SDS011;54139;42.616;23.748;2023-07-24T06:39:19;7.43;;;6.03;;
67227;SDS011;54139;42.616;23.748;2023-07-24T06:41:45;6.30;;;5.25;;
67227;SDS011;54139;42.616;23.748;2023-07-24T06:44:11;5.95;;;5.35;;
67227;SDS011;54139;42.616;23.748;2023-07-24T06:46:36;5.45;;;4.95;;
67227;SDS011;54139;42.616;23.748;2023-07-24T06:49:02;5.70;;;5.20;;
67227;SDS011;54139;42.616;23.748;2023-07-24T06:51:27;6.80;;;4.87;;
67227;SDS011;54139;42.616;23.748;2023-07-24T06:53:53;5.80;;;5.30;;
67227;SDS011;54139;42.616;23.748;2023-07-24T06:56:18;5.78;;;5.18;;
67227;SDS011;54139;42.616;23.748;2023-07-24T06:58:44;5.53;;;5.00;;
67227;SDS011;54139;42.616;23.748;2023-07-24T07:01:09;5.57;;;5.07;;
67227;SDS011;54139;42.616;23.748;2023-07-24T07:03:34;6.18;;;5.32;;
67227;SDS011;54139;42.616;23.748;2023-07-24T07:06:00;6.65;;;5.18;;
67227;SDS011;54139;42.616;23.748;2023-07-24T07:08:26;5.97;;;5.30;;
67227;SDS011;54139;42.616;23.748;2023-07-24T07:10:58;6.32;;;5.65;;
67227;SDS011;54139;42.616;23.748;2023-07-24T07:13:24;5.25;;;4.75;;
67227;SDS011;54139;42.616;23.748;2023-07-24T07:15:50;5.47;;;4.97;;
67227;SDS011;54139;42.616;23.748;2023-07-24T07:18:16;4.75;;;4.28;;
67227;SDS011;54139;42.616;23.748;2023-07-24T07:20:45;5.85;;;5.18;;
67227;SDS011;54139;42.616;23.748;2023-07-24T07:23:11;5.60;;;5.00;;
67227;SDS011;54139;42.616;23.748;2023-07-24T07:25:37;5.82;;;5.05;;
67227;SDS011;54139;42.616;23.748;2023-07-24T07:28:02;5.38;;;4.88;;
67227;SDS011;54139;42.616;23.748;2023-07-24T07:30:28;5.90;;;5.32;;
67227;SDS011;54139;42.616;23.748;2023-07-24T07:32:53;7.32;;;4.95;;
67227;SDS011;54139;42.616;23.748;2023-07-24T07:35:19;7.72;;;5.30;;
67227;SDS011;54139;42.616;23.748;2023-07-24T07:37:44;5.95;;;5.10;;
67227;SDS011;54139;42.616;23.748;2023-07-24T07:40:09;6.97;;;5.10;;
67227;SDS011;54139;42.616;23.748;2023-07-24T07:42:35;6.57;;;5.00;;
67227;SDS011;54139;42.616;23.748;2023-07-24T07:45:01;8.00;;;5.20;;
67227;SDS011;54139;42.616;23.748;2023-07-24T07:47:26;4.97;;;4.40;;
67227;SDS011;54139;42.616;23.748;2023-07-24T07:49:52;6.50;;;4.85;;
67227;SDS011;54139;42.616;23.748;2023-07-24T07:52:17;5.82;;;5.22;;
67227;SDS011;54139;42.616;23.748;2023-07-24T07:54:46;6.82;;;5.30;;
67227;SDS011;54139;42.616;23.748;2023-07-24T07:57:12;5.13;;;4.63;;
67227;SDS011;54139;42.616;23.748;2023-07-24T07:59:38;7.82;;;5.43;;
67227;SDS011;54139;42.616;23.748;2023-07-24T08:02:03;10.52;;;5.97;;
67227;SDS011;54139;42.616;23.748;2023-07-24T08:04:29;8.15;;;5.30;;
67227;SDS011;54139;42.616;23.748;2023-07-24T08:06:54;8.05;;;5.38;;
67227;SDS011;54139;42.616;23.748;2023-07-24T08:09:19;6.97;;;5.97;;
67227;SDS011;54139;42.616;23.748;2023-07-24T08:11:46;7.25;;;5.07;;
67227;SDS011;54139;42.616;23.748;2023-07-24T08:14:12;7.38;;;5.40;;
67227;SDS011;54139;42.616;23.748;2023-07-24T08:16:38;7.10;;;6.00;;
67227;SDS011;54139;42.616;23.748;2023-07-24T08:19:03;8.48;;;5.45;;
67227;SDS011;54139;42.616;23.748;2023-07-24T08:21:29;5.70;;;4.93;;
67227;SDS011;54139;42.616;23.748;2023-07-24T08:23:54;6.72;;;5.55;;
67227;SDS011;54139;42.616;23.748;2023-07-24T08:26:20;7.00;;;5.63;;
67227;SDS011;54139;42.616;23.748;2023-07-24T08:28:45;6.18;;;5.53;;
67227;SDS011;54139;42.616;23.748;2023-07-24T08:31:11;6.75;;;5.35;;
67227;SDS011;54139;42.616;23.748;2023-07-24T08:33:36;10.57;;;5.75;;
67227;SDS011;54139;42.616;23.748;2023-07-24T08:36:05;8.00;;;5.60;;
67227;SDS011;54139;42.616;23.748;2023-07-24T08:38:32;7.38;;;5.70;;
67227;SDS011;54139;42.616;23.748;2023-07-24T08:41:02;8.35;;;6.18;;
67227;SDS011;54139;42.616;23.748;2023-07-24T08:43:29;9.80;;;7.22;;
67227;SDS011;54139;42.616;23.748;2023-07-24T08:45:58;13.15;;;6.97;;
67227;SDS011;54139;42.616;23.748;2023-07-24T08:48:32;7.82;;;6.38;;
67227;SDS011;54139;42.616;23.748;2023-07-24T08:51:01;9.32;;;5.70;;
67227;SDS011;54139;42.616;23.748;2023-07-24T08:53:35;19.50;;;8.75;;
67227;SDS011;54139;42.616;23.748;2023-07-24T08:56:04;7.20;;;6.25;;
67227;SDS011;54139;42.616;23.748;2023-07-24T08:58:30;9.25;;;6.80;;
67227;SDS011;54139;42.616;23.748;2023-07-24T09:00:56;17.55;;;8.07;;
67227;SDS011;54139;42.616;23.748;2023-07-24T09:03:22;17.23;;;6.53;;
67227;SDS011;54139;42.616;23.748;2023-07-24T09:05:48;17.10;;;7.50;;
67227;SDS011;54139;42.616;23.748;2023-07-24T09:08:13;10.90;;;6.32;;
67227;SDS011;54139;42.616;23.748;2023-07-24T09:10:39;11.82;;;6.22;;
67227;SDS011;54139;42.616;23.748;2023-07-24T09:13:05;7.80;;;5.63;;
67227;SDS011;54139;42.616;23.748;2023-07-24T09:15:41;7.55;;;6.57;;
67227;SDS011;54139;42.616;23.748;2023-07-24T09:18:08;7.82;;;5.97;;
67227;SDS011;54139;42.616;23.748;2023-07-24T09:20:41;9.05;;;6.20;;
67227;SDS011;54139;42.616;23.748;2023-07-24T09:23:07;9.05;;;6.72;;
67227;SDS011;54139;42.616;23.748;2023-07-24T09:25:36;8.90;;;6.10;;
67227;SDS011;54139;42.616;23.748;2023-07-24T09:28:11;9.07;;;6.53;;
67227;SDS011;54139;42.616;23.748;2023-07-24T09:30:37;10.10;;;6.65;;
67227;SDS011;54139;42.616;23.748;2023-07-24T09:33:03;7.32;;;6.32;;
67227;SDS011;54139;42.616;23.748;2023-07-24T09:35:29;8.25;;;6.43;;
67227;SDS011;54139;42.616;23.748;2023-07-24T09:38:08;8.27;;;6.70;;
67227;SDS011;54139;42.616;23.748;2023-07-24T09:40:38;8.35;;;6.88;;
67227;SDS011;54139;42.616;23.748;2023-07-24T09:43:15;8.93;;;5.97;;
67227;SDS011;54139;42.616;23.748;2023-07-24T09:45:41;7.65;;;6.15;;
67227;SDS011;54139;42.616;23.748;2023-07-24T09:48:07;7.47;;;6.20;;
67227;SDS011;54139;42.616;23.748;2023-07-24T09:50:36;9.18;;;6.07;;
67227;SDS011;54139;42.616;23.748;2023-07-24T09:53:01;8.35;;;6.30;;
67227;SDS011;54139;42.616;23.748;2023-07-24T09:55:30;7.23;;;6.50;;
67227;SDS011;54139;42.616;23.748;2023-07-24T09:58:00;10.73;;;6.35;;
67227;SDS011;54139;42.616;23.748;2023-07-24T10:00:26;7.78;;;5.80;;
67227;SDS011;54139;42.616;23.748;2023-07-24T10:02:52;8.65;;;6.13;;
67227;SDS011;54139;42.616;23.748;2023-07-24T10:05:17;11.23;;;6.38;;
67227;SDS011;54139;42.616;23.748;2023-07-24T10:07:43;9.63;;;6.53;;
67227;SDS011;54139;42.616;23.748;2023-07-24T10:10:09;9.85;;;6.72;;
67227;SDS011;54139;42.616;23.748;2023-07-24T10:12:34;9.95;;;5.88;;
67227;SDS011;54139;42.616;23.748;2023-07-24T10:15:01;8.55;;;6.15;;
67227;SDS011;54139;42.616;23.748;2023-07-24T10:17:40;8.25;;;6.00;;
67227;SDS011;54139;42.616;23.748;2023-07-24T10:20:07;9.63;;;6.20;;
67227;SDS011;54139;42.616;23.748;2023-07-24T10:22:35;15.55;;;6.18;;
67227;SDS011;54139;42.616;23.748;2023-07-24T10:25:02;9.27;;;5.18;;
67227;SDS011;54139;42.616;23.748;2023-07-24T10:27:28;8.85;;;5.95;;
67227;SDS011;54139;42.616;23.748;2023-07-24T10:30:06;9.48;;;5.65;;
67227;SDS011;54139;42.616;23.748;2023-07-24T10:32:32;9.75;;;5.72;;
67227;SDS011;54139;42.616;23.748;2023-07-24T10:35:07;7.90;;;6.13;;
67227;SDS011;54139;42.616;23.748;2023-07-24T10:37:34;10.27;;;6.30;;
67227;SDS011;54139;42.616;23.748;2023-07-24T10:40:03;10.95;;;5.63;;
67227;SDS011;54139;42.616;23.748;2023-07-24T10:42:30;13.05;;;6.43;;
67227;SDS011;54139;42.616;23.748;2023-07-24T10:45:08;9.88;;;5.63;;
67227;SDS011;54139;42.616;23.748;2023-07-24T10:47:34;14.95;;;5.85;;
67227;SDS011;54139;42.616;23.748;2023-07-24T10:49:59;10.52;;;5.50;;
67227;SDS011;54139;42.616;23.748;2023-07-24T10:54:54;10.60;;;6.38;;
67227;SDS011;54139;42.616;23.748;2023-07-24T10:57:24;11.40;;;6.13;;
67227;SDS011;54139;42.616;23.748;2023-07-24T10:59:51;14.40;;;6.22;;
67227;SDS011;54139;42.616;23.748;2023-07-24T11:02:16;10.35;;;5.28;;
67227;SDS011;54139;42.616;23.748;2023-07-24T11:04:42;9.32;;;6.85;;
67227;SDS011;54139;42.616;23.748;2023-07-24T11:07:07;11.30;;;6.20;;
67227;SDS011;54139;42.616;23.748;2023-07-24T11:09:36;9.27;;;6.07;;
67227;SDS011;54139;42.616;23.748;2023-07-24T11:12:14;9.07;;;5.78;;
67227;SDS011;54139;42.616;23.748;2023-07-24T11:14:50;9.52;;;5.38;;
67227;SDS011;54139;42.616;23.748;2023-07-24T11:17:19;8.30;;;5.47;;
67227;SDS011;54139;42.616;23.748;2023-07-24T11:19:44;11.35;;;7.15;;
67227;SDS011;54139;42.616;23.748;2023-07-24T11:22:10;12.02;;;6.45;;
67227;SDS011;54139;42.616;23.748;2023-07-24T11:24:46;11.48;;;6.35;;
67227;SDS011;54139;42.616;23.748;2023-07-24T11:27:15;6.60;;;5.75;;
67227;SDS011;54139;42.616;23.748;2023-07-24T11:29:46;7.50;;;5.78;;
67227;SDS011;54139;42.616;23.748;2023-07-24T11:32:13;10.93;;;7.03;;
67227;SDS011;54139;42.616;23.748;2023-07-24T11:34:42;9.93;;;6.60;;
67227;SDS011;54139;42.616;23.748;2023-07-24T11:37:08;11.73;;;6.10;;
67227;SDS011;54139;42.616;23.748;2023-07-24T11:39:33;9.77;;;6.18;;
67227;SDS011;54139;42.616;23.748;2023-07-24T11:41:59;9.70;;;6.10;;
67227;SDS011;54139;42.616;23.748;2023-07-24T11:44:29;9.27;;;7.35;;
67227;SDS011;54139;42.616;23.748;2023-07-24T11:47:01;10.05;;;6.75;;
67227;SDS011;54139;42.616;23.748;2023-07-24T11:49:30;11.13;;;6.85;;
67227;SDS011;54139;42.616;23.748;2023-07-24T11:52:03;8.68;;;5.82;;
67227;SDS011;54139;42.616;23.748;2023-07-24T11:54:29;8.43;;;5.95;;
67227;SDS011;54139;42.616;23.748;2023-07-24T11:56:55;11.40;;;6.38;;
67227;SDS011;54139;42.616;23.748;2023-07-24T11:59:20;10.98;;;6.72;;
67227;SDS011;54139;42.616;23.748;2023-07-24T12:01:46;14.93;;;7.03;;
67227;SDS011;54139;42.616;23.748;2023-07-24T12:04:13;12.23;;;6.45;;
67227;SDS011;54139;42.616;23.748;2023-07-24T12:06:39;8.85;;;6.28;;
67227;SDS011;54139;42.616;23.748;2023-07-24T12:09:05;11.88;;;6.28;;
67227;SDS011;54139;42.616;23.748;2023-07-24T12:11:31;9.45;;;6.45;;
67227;SDS011;54139;42.616;23.748;2023-07-24T12:13:57;8.48;;;6.13;;
67227;SDS011;54139;42.616;23.748;2023-07-24T12:16:23;8.13;;;5.80;;
67227;SDS011;54139;42.616;23.748;2023-07-24T12:18:48;11.48;;;6.05;;
67227;SDS011;54139;42.616;23.748;2023-07-24T12:21:14;10.65;;;6.63;;
67227;SDS011;54139;42.616;23.748;2023-07-24T12:23:39;7.97;;;6.05;;
67227;SDS011;54139;42.616;23.748;2023-07-24T12:26:04;11.57;;;6.75;;
67227;SDS011;54139;42.616;23.748;2023-07-24T12:28:30;10.10;;;6.38;;
67227;SDS011;54139;42.616;23.748;2023-07-24T12:30:55;8.75;;;6.68;;
67227;SDS011;54139;42.616;23.748;2023-07-24T12:33:21;9.48;;;5.95;;
67227;SDS011;54139;42.616;23.748;2023-07-24T12:35:49;16.40;;;6.87;;
67227;SDS011;54139;42.616;23.748;2023-07-24T12:38:19;11.20;;;6.38;;
67227;SDS011;54139;42.616;23.748;2023-07-24T12:40:44;10.80;;;6.53;;
67227;SDS011;54139;42.616;23.748;2023-07-24T12:43:10;8.40;;;6.28;;
67227;SDS011;54139;42.616;23.748;2023-07-24T12:45:35;11.30;;;6.07;;
67227;SDS011;54139;42.616;23.748;2023-07-24T12:48:00;10.00;;;6.30;;
67227;SDS011;54139;42.616;23.748;2023-07-24T12:50:26;7.13;;;5.95;;
67227;SDS011;54139;42.616;23.748;2023-07-24T12:52:51;10.05;;;5.82;;
67227;SDS011;54139;42.616;23.748;2023-07-24T12:55:17;13.23;;;6.65;;
67227;SDS011;54139;42.616;23.748;2023-07-24T12:57:43;12.85;;;6.20;;
67227;SDS011;54139;42.616;23.748;2023-07-24T13:00:09;12.20;;;6.03;;
67227;SDS011;54139;42.616;23.748;2023-07-24T13:02:35;11.30;;;5.47;;
67227;SDS011;54139;42.616;23.748;2023-07-24T13:05:00;12.40;;;5.70;;
67227;SDS011;54139;42.616;23.748;2023-07-24T13:07:26;11.88;;;6.32;;
67227;SDS011;54139;42.616;23.748;2023-07-24T13:09:51;13.27;;;5.72;;
67227;SDS011;54139;42.616;23.748;2023-07-24T13:12:17;9.73;;;6.03;;
67227;SDS011;54139;42.616;23.748;2023-07-24T13:14:42;8.73;;;6.18;;
67227;SDS011;54139;42.616;23.748;2023-07-24T13:17:08;10.93;;;5.70;;
67227;SDS011;54139;42.616;23.748;2023-07-24T13:19:34;11.77;;;5.93;;
67227;SDS011;54139;42.616;23.748;2023-07-24T13:21:59;9.07;;;5.72;;
67227;SDS011;54139;42.616;23.748;2023-07-24T13:24:25;12.05;;;5.90;;
67227;SDS011;54139;42.616;23.748;2023-07-24T13:26:50;11.25;;;6.53;;
67227;SDS011;54139;42.616;23.748;2023-07-24T13:29:16;10.18;;;5.72;;
67227;SDS011;54139;42.616;23.748;2023-07-24T13:31:41;12.32;;;6.82;;
67227;SDS011;54139;42.616;23.748;2023-07-24T13:34:07;12.75;;;5.97;;
67227;SDS011;54139;42.616;23.748;2023-07-24T13:36:33;15.18;;;5.13;;
67227;SDS011;54139;42.616;23.748;2023-07-24T13:38:59;7.35;;;5.55;;
67227;SDS011;54139;42.616;23.748;2023-07-24T13:41:24;9.40;;;5.05;;
67227;SDS011;54139;42.616;23.748;2023-07-24T13:43:49;8.60;;;5.63;;
67227;SDS011;54139;42.616;23.748;2023-07-24T13:46:15;7.25;;;5.65;;
67227;SDS011;54139;42.616;23.748;2023-07-24T13:48:40;7.10;;;5.47;;
67227;SDS011;54139;42.616;23.748;2023-07-24T13:51:06;12.27;;;5.78;;
67227;SDS011;54139;42.616;23.748;2023-07-24T13:53:31;12.20;;;6.00;;
67227;SDS011;54139;42.616;23.748;2023-07-24T13:55:57;13.07;;;5.88;;
67227;SDS011;54139;42.616;23.748;2023-07-24T13:58:22;12.30;;;6.30;;
67227;SDS011;54139;42.616;23.748;2023-07-24T14:00:47;14.70;;;5.85;;
67227;SDS011;54139;42.616;23.748;2023-07-24T14:03:13;14.75;;;6.05;;
67227;SDS011;54139;42.616;23.748;2023-07-24T14:05:39;9.60;;;5.47;;
67227;SDS011;54139;42.616;23.748;2023-07-24T14:08:06;10.60;;;5.93;;
67227;SDS011;54139;42.616;23.748;2023-07-24T14:10:32;9.23;;;6.00;;
67227;SDS011;54139;42.616;23.748;2023-07-24T14:12:57;11.38;;;5.45;;
67227;SDS011;54139;42.616;23.748;2023-07-24T14:15:23;11.20;;;6.07;;
67227;SDS011;54139;42.616;23.748;2023-07-24T14:17:48;13.88;;;6.95;;
67227;SDS011;54139;42.616;23.748;2023-07-24T14:20:14;7.47;;;5.53;;
67227;SDS011;54139;42.616;23.748;2023-07-24T14:22:39;7.30;;;5.97;;
67227;SDS011;54139;42.616;23.748;2023-07-24T14:25:05;11.75;;;6.22;;